Aérodrome :
LOGIN :

S'inscrire | Disclaimer

   EN    FR    IT 

 










Légende :    VFR   VFR Marginal   IFR   IFR Intensif   IFR Très Intensif
Visi : 
Plafond : 
>= 8 km
>= 3000ft
5 à 8 km
1000 à 3000 ft
1500m à 5 km
500 à 1000 ft
800 à 1500m
200 à 500 ft
< 800m
< 200 ft
Symboles :   Orages  Brouillard  Fortes neiges  Fortes précipitations  Vent > 20 kt
SIGMETs :   Divers  Orages  Givrage  Turbulence  Onde Orograph.  Cendres Volcan.







- Altitude de l'aérodrome : 1 ft
- Voir les cartes d'approche


EGCK - Caernarfon

DERNIER METAR :
  • 262320Z AUTO 05015KT 9999 NCD 19/08 Q1019

METARs EXPIRÉS :
  • 262250Z AUTO 05014KT 9999 NCD 19/07 Q1019
  • 262220Z AUTO 05010KT 360V090 9999 NCD 19/07 Q1019
  • 262150Z AUTO 05008KT 350V080 9999 NCD 19/06 Q1019
  • 262120Z AUTO 03009KT 360V060 9999 NCD 18/07 Q1019
  • 262050Z AUTO 04011KT 9999 NCD 19/07 Q1019

Prévision TAF périmée.
Pas de NOTAMs connus pour ce terrain.
1 SIGMET publié pour la FIR London (EGTT) :
 
Orages noyés dans la masse
EGTT SIGMET 07 VALID 262230/270230 EGRR
EGTT LONDON FIR EMBD TS OBS WI N5040 E00128 - N5000 W00015 - N5000 W00200 - N4928 W00447 - N4959 W00800 - N5100 W00800 - N5155 W00616 - N5136 E00120 - N5053 E00128 - N5040 E00128 TOP FL370 MOV WNW 15KT NC=



MET'MAP, la Météo Aéronautique d'un coup d'oeil ! - Copyright ORBIFLY Décembre 2007 - Disclaimer

ORBIFLY MET'MAP TEAM :

Programmation & Développement : Alexandra Zaïnal
Conception & Développement : Baudouin d'Aumeries
Co-Programmation & Développement : Marc-Olivier Méhu
Soutien technique & logistique : Manuel Goepfert

Contact : metmap@orbifly.com




SOURCES & CREDITS :

   NOAA